This is the latest recevied weather packets stored in our database for station/object KM4NDN. If no packets are shown the sender has not sent any weather packets the latest 1 day(s).
| Time | Temp. | Humidity | Pressure | Rain* | Wind** | Luminosity | Snow |
|---|---|---|---|---|---|---|---|
| 1778079978 | 11.67° C | 63% | 1010.2 hPa | 0 mm | - | 661 W/m² | - |
| 1778079675 | 11.67° C | 63% | 1010 hPa | 0 mm | - | 616 W/m² | - |
| 1778079372 | 11.67° C | 61% | 1009.7 hPa | 0 mm | - | 616 W/m² | - |
| 1778079069 | 11.67° C | 63% | 1009.9 hPa | 0 mm | - | 662 W/m² | - |
| 1778077556 | 11.11° C | 68% | 1009.4 hPa | 0 mm | - | 478 W/m² | - |
| 1778076347 | 10.56° C | 73% | 1009.5 hPa | 0 mm | - | 573 W/m² | - |
| 1778075741 | 10.56° C | 76% | 1009.6 hPa | 0 mm | - | 416 W/m² | - |
| 1778075437 | 10.56° C | 80% | 1009.5 hPa | 0 mm | - | 516 W/m² | - |
| 1778074527 | 8.89° C | 83% | 1009.4 hPa | 0 mm | - | 357 W/m² | - |
| 1778073921 | 8.89° C | 85% | 1009.3 hPa | 0 mm | - | 304 W/m² | - |
| 1778071197 | 7.78° C | 87% | 1008.6 hPa | 0 mm | - | 121 W/m² | - |
| 1778070592 | 7.78° C | 88% | 1008.6 hPa | 0 mm | - | 116 W/m² | - |
| 1778070289 | 7.78° C | 88% | 1008.6 hPa | 0 mm | - | 131 W/m² | - |
| 1778069684 | 7.22° C | 90% | 1008.4 hPa | 0 mm | - | 94 W/m² | - |
| 1778066961 | 7.22° C | 92% | 1008.5 hPa | 0 mm | - | 15 W/m² | - |
| 1778066659 | 7.22° C | 92% | 1008.4 hPa | 0 mm | - | 19 W/m² | - |
| 1778066356 | 6.67° C | 92% | 1008.4 hPa | 0 mm | - | 8 W/m² | - |
| 1778066054 | 6.67° C | 92% | 1008 hPa | 0 mm | - | 9 W/m² | - |
| 1778064841 | 6.67° C | 94% | 1007.6 hPa | 0 mm | - | 8 W/m² | - |
| 1778064236 | 6.67° C | 94% | 1007.5 hPa | 0 mm | - | 5 W/m² | - |
| 1778063026 | 6.67° C | 94% | 1006.8 hPa | 0 mm | - | 1 W/m² | - |
| 1778062723 | 6.67° C | 94% | 1006.8 hPa | 0 mm | - | 0 W/m² | - |
| 1778062419 | 6.67° C | 94% | 1006.9 hPa | 0 mm | - | 0 W/m² | - |
| 1778062117 | 6.67° C | 94% | 1007 hPa | 0 mm | - | 0 W/m² | - |
| 1778061513 | 6.67° C | 94% | 1006.8 hPa | 0 mm | - | 0 W/m² | - |
* Rain latest hour (hover to see other rain measurements)
** Current wind speed in m/s (hover to see current wind gust speed)